createdAt,value
2022-12-14T00:01:32.047Z,82.02
2022-12-14T00:03:58.611Z,81.92
2022-12-14T00:06:30.188Z,81.64
2022-12-14T00:08:59.371Z,81.86
2022-12-14T00:11:26.232Z,81.65
2022-12-14T00:13:55.116Z,81.35
2022-12-14T00:16:23.950Z,80.91
2022-12-14T00:18:52.818Z,81.49
2022-12-14T00:21:20.819Z,82.02
2022-12-14T00:23:48.458Z,81.93
2022-12-14T00:26:20.812Z,81.16
2022-12-14T00:28:52.210Z,81.61
2022-12-14T00:31:19.217Z,81.78
2022-12-14T00:33:46.104Z,81.43
2022-12-14T00:36:13.145Z,81.86
2022-12-14T00:38:40.579Z,80.98
2022-12-14T00:41:08.453Z,81.36
2022-12-14T00:43:35.657Z,81.09
2022-12-14T00:46:02.351Z,81.62
2022-12-14T00:48:30.093Z,81.18
2022-12-14T00:50:57.711Z,80.88
2022-12-14T00:53:25.443Z,81.61
2022-12-14T00:55:52.507Z,81.34
2022-12-14T00:58:23.056Z,81.62
2022-12-14T01:01:00.308Z,81.06
2022-12-14T01:03:27.281Z,81.83
2022-12-14T01:05:56.571Z,81.07
2022-12-14T01:08:24.156Z,80.94
2022-12-14T01:10:51.934Z,80.67
2022-12-14T01:13:18.713Z,81.20
2022-12-14T01:15:45.437Z,81.05
2022-12-14T01:18:14.448Z,80.61
2022-12-14T01:20:40.975Z,80.61
2022-12-14T01:23:09.849Z,81.02
2022-12-14T01:25:36.425Z,81.04
2022-12-14T01:28:05.175Z,81.31
2022-12-14T01:30:31.765Z,81.13
2022-12-14T01:32:58.302Z,80.85
2022-12-14T01:35:24.965Z,81.27
2022-12-14T01:37:54.015Z,81.03
2022-12-14T01:40:20.548Z,80.69
2022-12-14T01:42:49.365Z,81.03
2022-12-14T01:45:21.817Z,81.26
2022-12-14T01:47:56.781Z,80.52
2022-12-14T01:50:29.463Z,80.83
2022-12-14T01:53:05.861Z,80.37
2022-12-14T01:55:38.467Z,81.35
2022-12-14T01:58:13.952Z,80.82
2022-12-14T02:00:41.277Z,80.71
2022-12-14T02:03:20.517Z,80.90
2022-12-14T02:05:52.341Z,80.36
2022-12-14T02:08:21.183Z,80.53
2022-12-14T02:10:50.342Z,80.48
2022-12-14T02:13:28.271Z,81.14
2022-12-14T02:15:55.105Z,80.43
2022-12-14T02:18:23.754Z,80.89
2022-12-14T02:21:08.282Z,80.27
2022-12-14T02:24:02.492Z,80.54
2022-12-14T02:26:58.013Z,80.89
2022-12-14T02:29:55.724Z,81.01
2022-12-14T02:32:28.069Z,80.68
2022-12-14T02:35:10.639Z,80.29
2022-12-14T02:38:06.678Z,80.34
2022-12-14T02:40:48.624Z,80.47
2022-12-14T02:43:30.685Z,81.12
2022-12-14T02:46:15.875Z,80.36
2022-12-14T02:49:06.172Z,80.80
2022-12-14T02:51:47.923Z,80.93
2022-12-14T02:54:31.861Z,80.92
2022-12-14T02:57:14.351Z,81.23
2022-12-14T02:59:43.884Z,80.96
2022-12-14T03:02:12.438Z,80.29
2022-12-14T03:04:47.637Z,80.79
2022-12-14T03:07:48.905Z,80.91
2022-12-14T03:10:30.766Z,80.02
2022-12-14T03:13:05.476Z,80.67
2022-12-14T03:15:33.748Z,80.55
2022-12-14T03:18:05.920Z,80.50
2022-12-14T03:20:38.092Z,80.61
2022-12-14T03:23:12.483Z,80.61
2022-12-14T03:25:50.753Z,80.41
2022-12-14T03:28:30.540Z,80.46
2022-12-14T03:31:06.819Z,80.85
2022-12-14T03:33:36.850Z,80.66
2022-12-14T03:36:19.099Z,80.81
2022-12-14T03:38:55.506Z,80.27
2022-12-14T03:41:31.044Z,80.76
2022-12-14T03:44:18.810Z,80.38
2022-12-14T03:47:02.532Z,80.60
2022-12-14T03:50:12.430Z,81.11
2022-12-14T03:53:00.547Z,80.45
2022-12-14T03:55:43.066Z,79.96
2022-12-14T03:58:18.651Z,80.46
2022-12-14T04:01:08.356Z,79.97
2022-12-14T04:03:59.000Z,80.69
2022-12-14T04:06:54.685Z,80.39
2022-12-14T04:09:23.844Z,80.17
2022-12-14T04:12:33.173Z,80.19
2022-12-14T04:15:28.252Z,80.36
2022-12-14T04:18:18.200Z,80.71
2022-12-14T04:20:54.604Z,80.95
2022-12-14T04:24:18.590Z,80.31
2022-12-14T04:27:04.461Z,80.66
2022-12-14T04:29:52.264Z,80.66
2022-12-14T04:32:25.630Z,80.83
2022-12-14T04:35:02.740Z,80.82
2022-12-14T04:37:31.643Z,80.51
2022-12-14T04:40:05.484Z,80.71
2022-12-14T04:42:41.690Z,80.57
2022-12-14T04:45:21.988Z,80.22
2022-12-14T04:48:00.477Z,80.16
2022-12-14T04:50:36.505Z,80.13
2022-12-14T04:53:15.518Z,80.79
2022-12-14T04:56:00.775Z,80.75
2022-12-14T04:58:30.010Z,80.13
2022-12-14T05:01:05.538Z,80.80
2022-12-14T05:03:36.148Z,80.65
2022-12-14T05:06:17.244Z,79.95
2022-12-14T05:08:55.931Z,79.88
2022-12-14T05:14:36.656Z,80.07
2022-12-14T05:17:08.884Z,80.19
2022-12-14T05:19:36.732Z,79.90
2022-12-14T05:22:08.129Z,80.38
2022-12-14T05:24:34.784Z,80.26
2022-12-14T05:27:01.324Z,79.94
2022-12-14T05:29:27.918Z,80.03
2022-12-14T05:31:56.883Z,80.08
2022-12-14T05:34:23.492Z,79.81
2022-12-14T05:36:50.031Z,79.62
2022-12-14T05:39:16.688Z,80.24
2022-12-14T05:41:43.504Z,79.76
2022-12-14T05:44:12.475Z,79.58
2022-12-14T05:46:39.053Z,80.20
2022-12-14T05:49:05.755Z,80.35
2022-12-14T05:51:32.289Z,79.83
2022-12-14T05:54:01.413Z,80.63
2022-12-14T05:56:27.998Z,80.36
2022-12-14T05:58:54.572Z,79.79
2022-12-14T06:01:21.166Z,80.14
2022-12-14T06:03:47.756Z,80.51
2022-12-14T06:06:14.874Z,80.33
2022-12-14T06:08:44.804Z,80.61
2022-12-14T06:11:16.120Z,80.30
2022-12-14T06:13:43.457Z,80.86
2022-12-14T06:16:15.827Z,81.17
2022-12-14T06:18:43.669Z,80.52
2022-12-14T06:21:10.601Z,80.34
2022-12-14T06:23:37.080Z,80.64
2022-12-14T06:26:03.810Z,80.47
2022-12-14T06:28:30.371Z,81.12
2022-12-14T06:30:56.941Z,80.61
2022-12-14T06:33:23.596Z,80.04
2022-12-14T06:35:52.394Z,80.59
2022-12-14T06:38:20.337Z,80.63
2022-12-14T06:40:49.155Z,80.61
2022-12-14T06:43:15.692Z,80.21
2022-12-14T06:45:42.285Z,80.98
2022-12-14T06:48:09.020Z,80.87
2022-12-14T06:50:38.269Z,80.28
2022-12-14T06:53:04.769Z,80.16
2022-12-14T06:55:31.409Z,80.73
2022-12-14T06:57:57.954Z,81.07
2022-12-14T07:00:25.377Z,80.37
2022-12-14T07:02:52.287Z,80.64
2022-12-14T07:05:18.928Z,80.53
2022-12-14T07:07:45.434Z,80.76
2022-12-14T07:10:12.929Z,80.82
2022-12-14T07:12:44.277Z,81.04
2022-12-14T07:15:11.323Z,80.57
2022-12-14T07:17:38.093Z,81.34
2022-12-14T07:20:06.913Z,80.89
2022-12-14T07:22:34.960Z,80.61
2022-12-14T07:25:01.759Z,81.21
2022-12-14T07:27:30.637Z,81.48
2022-12-14T07:29:57.162Z,81.14
2022-12-14T07:32:23.873Z,81.59
2022-12-14T07:34:50.602Z,80.94
2022-12-14T07:37:17.420Z,80.88
2022-12-14T07:39:43.925Z,80.51
2022-12-14T07:42:10.686Z,79.17
2022-12-14T07:44:37.289Z,78.90
2022-12-14T07:47:03.915Z,80.27
2022-12-14T07:49:30.579Z,79.96
2022-12-14T07:51:57.173Z,80.72
2022-12-14T07:54:26.454Z,80.90
2022-12-14T07:56:53.015Z,80.99
2022-12-14T07:59:23.334Z,81.16
2022-12-14T08:01:52.076Z,80.14
2022-12-14T08:04:20.282Z,81.04
2022-12-14T08:06:48.135Z,81.26
2022-12-14T08:09:15.707Z,81.54
2022-12-14T08:11:44.744Z,81.15
2022-12-14T08:14:17.347Z,81.54
2022-12-14T08:16:44.832Z,81.36
2022-12-14T08:19:14.936Z,81.37
2022-12-14T08:21:42.290Z,81.47
2022-12-14T08:24:11.494Z,81.04
2022-12-14T08:26:38.204Z,80.65
2022-12-14T08:29:07.670Z,81.39
2022-12-14T08:31:36.600Z,81.32
2022-12-14T08:34:03.350Z,81.22
2022-12-14T08:36:32.886Z,81.53
2022-12-14T08:39:06.099Z,81.11
2022-12-14T08:41:33.263Z,81.35
2022-12-14T08:44:01.790Z,81.71
2022-12-14T08:46:29.556Z,81.28
2022-12-14T08:48:56.953Z,81.16
2022-12-14T08:51:25.846Z,81.40
2022-12-14T08:53:55.530Z,80.92
2022-12-14T08:56:29.846Z,81.13
2022-12-14T08:58:57.175Z,81.31
2022-12-14T09:01:34.336Z,81.32
2022-12-14T09:04:05.021Z,80.92
2022-12-14T09:06:33.985Z,80.96
2022-12-14T09:09:00.661Z,81.29
2022-12-14T09:11:27.595Z,81.37
2022-12-14T09:13:54.372Z,81.00
2022-12-14T09:16:22.637Z,80.97
2022-12-14T09:18:50.413Z,81.02
2022-12-14T09:21:20.034Z,81.05
2022-12-14T09:23:51.398Z,80.82
2022-12-14T09:26:25.992Z,80.84
2022-12-14T09:28:55.128Z,80.11
2022-12-14T09:31:25.821Z,80.87
2022-12-14T09:33:52.700Z,80.95
2022-12-14T09:36:22.224Z,80.51
2022-12-14T09:38:52.813Z,79.42
2022-12-14T09:41:34.418Z,79.08
2022-12-14T09:44:32.736Z,78.45
2022-12-14T09:47:29.934Z,78.61
2022-12-14T09:50:07.101Z,78.39
2022-12-14T09:52:52.858Z,77.98
2022-12-14T09:55:33.720Z,78.64
2022-12-14T09:58:06.420Z,78.04
2022-12-14T10:00:38.279Z,78.35
2022-12-14T10:03:24.889Z,77.81
2022-12-14T10:06:26.687Z,77.45
2022-12-14T10:09:31.523Z,75.67
2022-12-14T10:12:10.934Z,76.64
2022-12-14T10:14:50.107Z,76.80
2022-12-14T10:17:25.064Z,76.54
2022-12-14T10:19:57.534Z,76.32
2022-12-14T10:22:34.943Z,76.94
2022-12-14T10:25:14.626Z,76.20
2022-12-14T10:28:09.820Z,76.21
2022-12-14T10:30:32.155Z,76.20
2022-12-14T10:33:16.555Z,76.10
2022-12-14T10:35:55.104Z,75.89
2022-12-14T10:38:35.407Z,76.39
2022-12-14T10:41:30.276Z,76.31
2022-12-14T10:44:19.703Z,76.11
2022-12-14T10:47:05.041Z,76.08
2022-12-14T10:49:43.669Z,75.84
2022-12-14T10:52:20.353Z,75.18
2022-12-14T10:55:00.988Z,75.34
2022-12-14T10:57:28.213Z,75.20
2022-12-14T11:00:08.408Z,75.20
2022-12-14T11:02:41.795Z,75.20
2022-12-14T11:05:36.839Z,75.55
2022-12-14T11:08:07.569Z,74.95
2022-12-14T11:10:36.254Z,74.76
2022-12-14T11:13:07.212Z,74.66
2022-12-14T11:15:43.704Z,75.33
2022-12-14T11:18:16.541Z,74.25
2022-12-14T11:20:58.682Z,74.86
2022-12-14T11:23:38.714Z,74.67
2022-12-14T11:26:12.386Z,74.68
2022-12-14T11:28:57.191Z,74.59
2022-12-14T11:31:25.888Z,74.17
2022-12-14T11:33:55.586Z,74.27
2022-12-14T11:36:24.856Z,74.47
2022-12-14T11:39:01.691Z,74.47
2022-12-14T11:41:42.329Z,73.98
2022-12-14T11:44:15.639Z,73.97
2022-12-14T11:46:48.486Z,74.03
2022-12-14T11:49:25.642Z,73.88
2022-12-14T11:52:04.426Z,73.37
2022-12-14T11:54:36.140Z,69.42
2022-12-14T11:57:10.569Z,71.02
2022-12-14T12:00:00.105Z,71.32
2022-12-14T12:02:34.698Z,71.17
2022-12-14T12:05:13.540Z,71.43
2022-12-14T12:07:50.687Z,72.07
2022-12-14T12:10:50.589Z,69.72
2022-12-14T12:13:25.554Z,70.77
2022-12-14T12:16:00.563Z,66.90
2022-12-14T12:18:50.487Z,69.32
2022-12-14T12:21:30.762Z,69.50
2022-12-14T12:24:16.314Z,67.45
2022-12-14T12:26:53.138Z,68.40
2022-12-14T12:29:19.608Z,69.21
2022-12-14T12:31:59.117Z,68.76
2022-12-14T12:34:54.896Z,69.32
2022-12-14T12:37:35.186Z,69.35
2022-12-14T12:40:26.432Z,70.00
2022-12-14T12:43:02.273Z,69.33
2022-12-14T12:45:44.280Z,70.03
2022-12-14T12:48:23.981Z,69.46
2022-12-14T12:50:55.312Z,69.51
2022-12-14T12:53:37.672Z,69.77
2022-12-14T12:56:08.541Z,69.93
2022-12-14T12:58:37.415Z,69.72
2022-12-14T13:01:39.484Z,70.16
2022-12-14T13:04:12.670Z,70.09
2022-12-14T13:06:50.731Z,69.77
2022-12-14T13:09:42.230Z,70.17
2022-12-14T13:12:34.607Z,70.21
2022-12-14T13:15:07.049Z,70.41
2022-12-14T13:17:35.955Z,71.03
2022-12-14T13:20:06.893Z,70.44
2022-12-14T13:22:36.330Z,70.94
2022-12-14T13:25:13.733Z,70.98
2022-12-14T13:27:49.561Z,71.12
2022-12-14T13:31:07.290Z,71.20
2022-12-14T13:33:52.238Z,71.33
2022-12-14T13:36:30.522Z,71.32
2022-12-14T13:39:25.110Z,71.49
2022-12-14T13:42:05.861Z,71.42
2022-12-14T13:44:45.037Z,71.30
2022-12-14T13:47:26.168Z,68.49
2022-12-14T13:50:34.268Z,69.80
2022-12-14T13:52:49.070Z,70.18
2022-12-14T13:55:31.896Z,70.59
2022-12-14T13:58:13.692Z,70.75
2022-12-14T14:00:49.296Z,70.73
2022-12-14T14:03:34.560Z,71.10
2022-12-14T14:06:16.276Z,71.12
2022-12-14T14:08:44.401Z,71.27
2022-12-14T14:11:39.237Z,71.20
2022-12-14T14:14:18.302Z,70.98
2022-12-14T14:16:49.582Z,71.36
2022-12-14T14:19:23.224Z,71.53
2022-12-14T14:22:24.935Z,71.38
2022-12-14T14:25:22.527Z,71.07
2022-12-14T14:27:52.285Z,71.13
2022-12-14T14:30:27.775Z,71.56
2022-12-14T14:33:19.998Z,71.29
2022-12-14T14:35:44.920Z,71.65
2022-12-14T14:38:27.872Z,72.33
2022-12-14T14:41:18.009Z,72.15
2022-12-14T14:43:55.943Z,72.84
2022-12-14T14:46:34.848Z,73.05
2022-12-14T14:49:01.630Z,73.16
2022-12-14T14:51:32.640Z,73.09
2022-12-14T14:54:46.216Z,73.43
2022-12-14T14:57:35.292Z,73.92
2022-12-14T15:00:06.417Z,73.76
2022-12-14T15:02:43.072Z,74.31
2022-12-14T15:08:19.712Z,74.35
2022-12-14T15:10:50.052Z,74.34
2022-12-14T15:13:31.391Z,74.59
2022-12-14T15:15:58.291Z,74.60
2022-12-14T15:18:24.884Z,75.14
2022-12-14T15:20:54.231Z,74.82
2022-12-14T15:23:23.398Z,75.35
2022-12-14T15:25:59.305Z,75.50
2022-12-14T15:28:27.013Z,75.69
2022-12-14T15:30:55.112Z,75.64
2022-12-14T15:33:38.628Z,75.28
2022-12-14T15:36:14.570Z,75.35
2022-12-14T15:38:51.734Z,75.33
2022-12-14T15:41:19.169Z,75.81
2022-12-14T15:43:49.005Z,75.56
2022-12-14T15:46:38.585Z,76.34
2022-12-14T15:49:10.618Z,76.03
2022-12-14T15:51:43.604Z,76.38
2022-12-14T15:54:20.794Z,75.85
2022-12-14T15:56:51.177Z,76.33
2022-12-14T15:59:23.988Z,75.89
2022-12-14T16:02:04.820Z,76.13
2022-12-14T16:04:33.518Z,75.94
2022-12-14T16:07:09.387Z,76.02
2022-12-14T16:09:43.813Z,76.41
2022-12-14T16:12:19.650Z,76.36
2022-12-14T16:14:54.207Z,76.51
2022-12-14T16:17:26.857Z,76.40
2022-12-14T16:20:23.975Z,76.45
2022-12-14T16:23:15.318Z,76.38
2022-12-14T16:25:55.970Z,77.13
2022-12-14T16:28:28.515Z,77.37
2022-12-14T16:31:00.348Z,76.77
2022-12-14T16:33:29.667Z,77.11
2022-12-14T16:36:04.448Z,77.38
2022-12-14T16:38:32.965Z,77.18
2022-12-14T16:41:02.310Z,77.40
2022-12-14T16:43:36.709Z,77.23
2022-12-14T16:46:03.248Z,77.37
2022-12-14T16:48:37.048Z,77.57
2022-12-14T16:51:28.309Z,77.48
2022-12-14T16:54:21.133Z,77.47
2022-12-14T16:57:00.891Z,77.71
2022-12-14T16:59:35.942Z,78.49
2022-12-14T17:02:03.427Z,78.24
2022-12-14T17:04:37.510Z,78.11
2022-12-14T17:07:04.578Z,78.74
2022-12-14T17:09:36.615Z,78.75
2022-12-14T17:12:13.567Z,78.81
2022-12-14T17:14:43.496Z,78.59
2022-12-14T17:17:22.477Z,78.81
2022-12-14T17:19:49.329Z,78.36
2022-12-14T17:22:26.666Z,78.41
2022-12-14T17:24:53.982Z,79.16
2022-12-14T17:27:22.233Z,78.80
2022-12-14T17:29:49.805Z,78.45
2022-12-14T17:32:17.769Z,79.16
2022-12-14T17:34:46.143Z,79.25
2022-12-14T17:37:20.931Z,79.17
2022-12-14T17:39:47.626Z,79.18
2022-12-14T17:42:16.805Z,78.72
2022-12-14T17:44:47.957Z,79.37
2022-12-14T17:47:14.684Z,79.44
2022-12-14T17:49:43.006Z,79.05
2022-12-14T17:52:26.775Z,79.01
2022-12-14T17:54:53.445Z,78.66
2022-12-14T17:57:22.749Z,79.36
2022-12-14T18:00:11.023Z,78.99
2022-12-14T18:02:44.623Z,79.09
2022-12-14T18:05:19.221Z,79.07
2022-12-14T18:07:49.621Z,79.21
2022-12-14T18:10:20.075Z,79.16
2022-12-14T18:12:49.382Z,79.20
2022-12-14T18:15:24.409Z,79.08
2022-12-14T18:17:53.151Z,79.49
2022-12-14T18:20:22.799Z,79.63
2022-12-14T18:22:50.227Z,79.43
2022-12-14T18:25:33.830Z,79.59
2022-12-14T18:28:05.930Z,79.73
2022-12-14T18:30:40.583Z,79.95
2022-12-14T18:33:16.722Z,79.83
2022-12-14T18:35:45.027Z,79.89
2022-12-14T18:38:11.957Z,79.67
2022-12-14T18:40:39.777Z,79.72
2022-12-14T18:43:15.593Z,79.73
2022-12-14T18:45:42.229Z,79.78
2022-12-14T18:48:08.755Z,79.92
2022-12-14T18:50:39.539Z,80.03
2022-12-14T18:53:17.111Z,79.62
2022-12-14T18:55:43.759Z,79.69
2022-12-14T18:58:17.227Z,79.98
2022-12-14T19:00:45.070Z,80.03
2022-12-14T19:03:12.011Z,80.04
2022-12-14T19:05:38.643Z,80.33
2022-12-14T19:08:05.286Z,79.92
2022-12-14T19:10:41.885Z,79.99
2022-12-14T19:13:14.690Z,80.11
2022-12-14T19:15:41.625Z,79.49
2022-12-14T19:18:10.916Z,79.89
2022-12-14T19:20:37.503Z,79.98
2022-12-14T19:23:04.321Z,80.04
2022-12-14T19:25:33.129Z,80.02
2022-12-14T19:30:48.082Z,79.99
2022-12-14T19:33:14.822Z,79.93
2022-12-14T19:35:42.322Z,79.99
2022-12-14T19:38:14.586Z,79.99
2022-12-14T19:40:46.197Z,80.20
2022-12-14T19:43:13.693Z,79.80
2022-12-14T19:45:40.276Z,79.60
2022-12-14T19:48:12.776Z,79.95
2022-12-14T19:50:39.893Z,80.21
2022-12-14T19:53:06.582Z,80.31
2022-12-14T19:55:34.682Z,79.99
2022-12-14T19:58:01.293Z,79.92
2022-12-14T20:00:27.997Z,80.03
2022-12-14T20:02:57.365Z,79.91
2022-12-14T20:05:23.990Z,80.17
2022-12-14T20:07:50.489Z,79.90
2022-12-14T20:10:17.028Z,79.85
2022-12-14T20:12:45.780Z,79.92
2022-12-14T20:15:13.038Z,79.37
2022-12-14T20:17:39.745Z,79.85
2022-12-14T20:20:06.883Z,79.63
2022-12-14T20:22:33.495Z,79.71
2022-12-14T20:25:00.713Z,79.97
2022-12-14T20:27:27.307Z,79.76
2022-12-14T20:29:53.883Z,79.69
2022-12-14T20:32:20.441Z,79.92
2022-12-14T20:34:47.022Z,80.00
2022-12-14T20:37:15.800Z,79.82
2022-12-14T20:39:42.325Z,79.64
2022-12-14T20:42:11.083Z,80.02
2022-12-14T20:44:37.646Z,79.88
2022-12-14T20:47:04.409Z,79.94
2022-12-14T20:49:34.009Z,80.00
2022-12-14T20:52:05.038Z,79.85
2022-12-14T20:54:31.893Z,79.85
2022-12-14T20:56:58.755Z,80.03
2022-12-14T20:59:25.421Z,79.86
2022-12-14T21:01:56.109Z,79.83
2022-12-14T21:04:23.534Z,79.70
2022-12-14T21:06:50.293Z,79.75
2022-12-14T21:09:16.820Z,79.89
2022-12-14T21:12:07.270Z,80.04
2022-12-14T21:14:36.839Z,79.86
2022-12-14T21:17:06.613Z,79.89
2022-12-14T21:19:36.740Z,79.84
2022-12-14T21:22:08.076Z,79.87
2022-12-14T21:25:01.683Z,79.92
2022-12-14T21:27:30.238Z,79.77
2022-12-14T21:29:56.733Z,79.82
2022-12-14T21:32:23.746Z,79.80
2022-12-14T21:34:50.330Z,79.91
2022-12-14T21:37:20.406Z,79.54
2022-12-14T21:39:53.900Z,80.04
2022-12-14T21:42:25.941Z,80.01
2022-12-14T21:44:53.739Z,79.65
2022-12-14T21:47:26.372Z,79.87
2022-12-14T21:49:53.216Z,79.46
2022-12-14T21:52:25.715Z,79.42
2022-12-14T21:54:52.466Z,78.94
2022-12-14T21:57:40.574Z,79.05
2022-12-14T22:00:09.016Z,79.35
2022-12-14T22:02:35.830Z,79.49
2022-12-14T22:05:04.895Z,79.49
2022-12-14T22:07:34.600Z,79.49
2022-12-14T22:10:01.458Z,79.61
2022-12-14T22:12:30.309Z,79.60
2022-12-14T22:14:59.142Z,80.00
2022-12-14T22:17:25.756Z,79.65
2022-12-14T22:19:55.363Z,79.72
2022-12-14T22:22:22.715Z,79.68
2022-12-14T22:24:51.036Z,79.62
2022-12-14T22:27:18.604Z,79.69
2022-12-14T22:29:45.300Z,79.88
2022-12-14T22:32:12.801Z,79.94
2022-12-14T22:34:39.544Z,79.99
2022-12-14T22:37:08.442Z,79.87
2022-12-14T22:39:37.340Z,79.60
2022-12-14T22:42:04.120Z,79.88
2022-12-14T22:44:32.886Z,79.58
2022-12-14T22:46:59.489Z,80.06
2022-12-14T22:49:26.045Z,79.83
2022-12-14T22:51:56.460Z,80.00
2022-12-14T22:54:25.601Z,79.72
2022-12-14T22:57:02.578Z,79.48
2022-12-14T22:59:58.621Z,79.37
2022-12-14T23:02:26.016Z,79.10
2022-12-14T23:04:52.802Z,79.54
2022-12-14T23:07:19.342Z,79.12
2022-12-14T23:10:04.547Z,79.22
2022-12-14T23:12:52.033Z,78.47
2022-12-14T23:15:37.447Z,78.10
2022-12-14T23:18:26.434Z,78.58
2022-12-14T23:21:12.384Z,78.49
2022-12-14T23:24:03.283Z,79.07
2022-12-14T23:26:49.703Z,79.07
2022-12-14T23:29:34.594Z,78.84
2022-12-14T23:32:19.856Z,79.13
2022-12-14T23:35:04.963Z,79.50
2022-12-14T23:37:50.012Z,79.38
2022-12-14T23:40:37.425Z,79.01
2022-12-14T23:43:33.977Z,79.36
2022-12-14T23:46:20.153Z,79.31
2022-12-14T23:49:07.185Z,79.34
2022-12-14T23:51:55.570Z,79.39
2022-12-14T23:54:40.595Z,79.42
2022-12-14T23:57:26.224Z,79.44
